sensor_id;sensor_type;location;lat;lon;timestamp;temperature;humidity
52943;DHT22;38809;53.300;6.614;2023-06-10T00:00:34;14.70;99.90
52943;DHT22;38809;53.300;6.614;2023-06-10T00:03:00;14.60;99.90
52943;DHT22;38809;53.300;6.614;2023-06-10T00:05:25;14.60;99.90
52943;DHT22;38809;53.300;6.614;2023-06-10T00:07:55;14.50;99.90
52943;DHT22;38809;53.300;6.614;2023-06-10T00:10:22;14.50;99.90
52943;DHT22;38809;53.300;6.614;2023-06-10T00:12:47;14.50;99.90
52943;DHT22;38809;53.300;6.614;2023-06-10T00:15:13;14.50;99.90
52943;DHT22;38809;53.300;6.614;2023-06-10T00:17:39;14.50;99.90
52943;DHT22;38809;53.300;6.614;2023-06-10T00:20:09;14.50;99.90
52943;DHT22;38809;53.300;6.614;2023-06-10T00:22:38;14.50;99.90
52943;DHT22;38809;53.300;6.614;2023-06-10T00:25:05;14.40;99.90
52943;DHT22;38809;53.300;6.614;2023-06-10T00:27:31;14.40;99.90
52943;DHT22;38809;53.300;6.614;2023-06-10T00:30:04;14.30;99.90
52943;DHT22;38809;53.300;6.614;2023-06-10T00:32:33;14.30;99.90
52943;DHT22;38809;53.300;6.614;2023-06-10T00:34:59;14.20;99.90
52943;DHT22;38809;53.300;6.614;2023-06-10T00:37:24;14.10;99.90
52943;DHT22;38809;53.300;6.614;2023-06-10T00:39:50;14.10;99.90
52943;DHT22;38809;53.300;6.614;2023-06-10T00:42:16;13.90;99.90
52943;DHT22;38809;53.300;6.614;2023-06-10T00:44:42;13.70;99.90
52943;DHT22;38809;53.300;6.614;2023-06-10T00:47:08;13.50;99.90
52943;DHT22;38809;53.300;6.614;2023-06-10T00:49:34;13.50;99.90
52943;DHT22;38809;53.300;6.614;2023-06-10T00:52:01;13.50;99.90
52943;DHT22;38809;53.300;6.614;2023-06-10T00:54:28;13.40;99.90
52943;DHT22;38809;53.300;6.614;2023-06-10T00:56:54;13.50;99.90
52943;DHT22;38809;53.300;6.614;2023-06-10T00:59:21;13.40;99.90
52943;DHT22;38809;53.300;6.614;2023-06-10T01:01:47;13.30;99.90
52943;DHT22;38809;53.300;6.614;2023-06-10T01:04:13;13.30;99.90
52943;DHT22;38809;53.300;6.614;2023-06-10T01:11:45;13.20;99.90
52943;DHT22;38809;53.300;6.614;2023-06-10T01:14:13;13.10;99.90
52943;DHT22;38809;53.300;6.614;2023-06-10T01:16:40;13.10;99.90
52943;DHT22;38809;53.300;6.614;2023-06-10T01:19:06;13.00;99.90
52943;DHT22;38809;53.300;6.614;2023-06-10T01:21:33;13.00;99.90
52943;DHT22;38809;53.300;6.614;2023-06-10T01:23:58;13.10;99.90
52943;DHT22;38809;53.300;6.614;2023-06-10T01:26:29;13.30;99.90
52943;DHT22;38809;53.300;6.614;2023-06-10T01:29:14;13.30;99.90
52943;DHT22;38809;53.300;6.614;2023-06-10T01:31:59;13.30;99.90
52943;DHT22;38809;53.300;6.614;2023-06-10T01:34:27;13.30;99.90
52943;DHT22;38809;53.300;6.614;2023-06-10T01:36:56;13.20;99.90
52943;DHT22;38809;53.300;6.614;2023-06-10T01:39:24;13.10;99.90
52943;DHT22;38809;53.300;6.614;2023-06-10T01:41:51;13.00;99.90
52943;DHT22;38809;53.300;6.614;2023-06-10T01:44:20;13.00;99.90
52943;DHT22;38809;53.300;6.614;2023-06-10T01:46:46;13.00;99.90
52943;DHT22;38809;53.300;6.614;2023-06-10T01:49:12;13.00;99.90
52943;DHT22;38809;53.300;6.614;2023-06-10T01:51:38;12.90;99.90
52943;DHT22;38809;53.300;6.614;2023-06-10T01:54:04;12.80;99.90
52943;DHT22;38809;53.300;6.614;2023-06-10T01:56:29;12.80;99.90
52943;DHT22;38809;53.300;6.614;2023-06-10T01:58:55;12.70;99.90
52943;DHT22;38809;53.300;6.614;2023-06-10T02:01:25;12.50;99.90
52943;DHT22;38809;53.300;6.614;2023-06-10T02:03:51;12.50;99.90
52943;DHT22;38809;53.300;6.614;2023-06-10T02:06:16;12.50;99.90
52943;DHT22;38809;53.300;6.614;2023-06-10T02:08:42;12.60;99.90
52943;DHT22;38809;53.300;6.614;2023-06-10T02:11:08;12.40;99.90
52943;DHT22;38809;53.300;6.614;2023-06-10T02:13:34;12.30;99.90
52943;DHT22;38809;53.300;6.614;2023-06-10T02:16:00;12.20;99.90
52943;DHT22;38809;53.300;6.614;2023-06-10T02:18:26;12.20;99.90
52943;DHT22;38809;53.300;6.614;2023-06-10T02:20:53;12.20;99.90
52943;DHT22;38809;53.300;6.614;2023-06-10T02:23:19;12.10;99.90
52943;DHT22;38809;53.300;6.614;2023-06-10T02:25:45;12.20;99.90
52943;DHT22;38809;53.300;6.614;2023-06-10T02:28:13;12.00;99.90
52943;DHT22;38809;53.300;6.614;2023-06-10T02:30:40;11.90;99.90
52943;DHT22;38809;53.300;6.614;2023-06-10T02:33:06;12.00;99.90
52943;DHT22;38809;53.300;6.614;2023-06-10T02:35:38;12.30;99.90
52943;DHT22;38809;53.300;6.614;2023-06-10T02:38:04;12.40;99.90
52943;DHT22;38809;53.300;6.614;2023-06-10T02:40:31;12.50;99.90
52943;DHT22;38809;53.300;6.614;2023-06-10T02:42:57;12.60;99.90
52943;DHT22;38809;53.300;6.614;2023-06-10T02:45:24;12.60;99.90
52943;DHT22;38809;53.300;6.614;2023-06-10T02:47:49;12.60;99.90
52943;DHT22;38809;53.300;6.614;2023-06-10T02:50:15;12.60;99.90
52943;DHT22;38809;53.300;6.614;2023-06-10T02:52:41;12.50;99.90
52943;DHT22;38809;53.300;6.614;2023-06-10T02:55:07;12.50;99.90
52943;DHT22;38809;53.300;6.614;2023-06-10T02:57:33;12.40;99.90
52943;DHT22;38809;53.300;6.614;2023-06-10T02:59:58;12.20;99.90
52943;DHT22;38809;53.300;6.614;2023-06-10T03:02:25;12.10;99.90
52943;DHT22;38809;53.300;6.614;2023-06-10T03:04:58;12.00;99.90
52943;DHT22;38809;53.300;6.614;2023-06-10T03:07:23;11.90;99.90
52943;DHT22;38809;53.300;6.614;2023-06-10T03:09:50;11.70;99.90
52943;DHT22;38809;53.300;6.614;2023-06-10T03:12:16;11.60;99.90
52943;DHT22;38809;53.300;6.614;2023-06-10T03:14:41;11.60;99.90
52943;DHT22;38809;53.300;6.614;2023-06-10T03:17:07;11.60;99.90
52943;DHT22;38809;53.300;6.614;2023-06-10T03:19:34;11.60;99.90
52943;DHT22;38809;53.300;6.614;2023-06-10T03:22:13;11.70;99.90
52943;DHT22;38809;53.300;6.614;2023-06-10T03:24:39;11.80;99.90
52943;DHT22;38809;53.300;6.614;2023-06-10T03:27:09;11.70;99.90
52943;DHT22;38809;53.300;6.614;2023-06-10T03:29:37;11.70;99.90
52943;DHT22;38809;53.300;6.614;2023-06-10T03:32:03;11.70;99.90
52943;DHT22;38809;53.300;6.614;2023-06-10T03:34:29;11.70;99.90
52943;DHT22;38809;53.300;6.614;2023-06-10T03:36:58;12.00;99.90
52943;DHT22;38809;53.300;6.614;2023-06-10T03:39:23;11.80;99.90
52943;DHT22;38809;53.300;6.614;2023-06-10T03:41:50;11.80;99.90
52943;DHT22;38809;53.300;6.614;2023-06-10T03:44:16;12.00;99.90
52943;DHT22;38809;53.300;6.614;2023-06-10T03:46:41;11.90;99.90
52943;DHT22;38809;53.300;6.614;2023-06-10T03:49:07;12.00;99.90
52943;DHT22;38809;53.300;6.614;2023-06-10T03:51:35;11.90;99.90
52943;DHT22;38809;53.300;6.614;2023-06-10T03:54:02;12.00;99.90
52943;DHT22;38809;53.300;6.614;2023-06-10T03:56:28;12.00;99.90
52943;DHT22;38809;53.300;6.614;2023-06-10T03:58:54;12.20;99.90
52943;DHT22;38809;53.300;6.614;2023-06-10T04:01:20;12.30;99.90
52943;DHT22;38809;53.300;6.614;2023-06-10T04:03:49;12.40;99.90
52943;DHT22;38809;53.300;6.614;2023-06-10T04:06:16;12.70;99.90
52943;DHT22;38809;53.300;6.614;2023-06-10T04:08:42;12.90;99.90
52943;DHT22;38809;53.300;6.614;2023-06-10T04:11:08;12.80;99.90
52943;DHT22;38809;53.300;6.614;2023-06-10T04:13:34;12.80;99.90
52943;DHT22;38809;53.300;6.614;2023-06-10T04:16:00;12.90;99.90
52943;DHT22;38809;53.300;6.614;2023-06-10T04:18:26;13.00;99.90
52943;DHT22;38809;53.300;6.614;2023-06-10T04:20:52;13.00;99.90
52943;DHT22;38809;53.300;6.614;2023-06-10T04:23:17;13.00;99.90
52943;DHT22;38809;53.300;6.614;2023-06-10T04:25:43;13.00;99.90
52943;DHT22;38809;53.300;6.614;2023-06-10T04:28:09;13.00;99.90
52943;DHT22;38809;53.300;6.614;2023-06-10T04:30:35;13.10;99.90
52943;DHT22;38809;53.300;6.614;2023-06-10T04:33:00;13.10;99.90
52943;DHT22;38809;53.300;6.614;2023-06-10T04:35:26;13.20;99.90
52943;DHT22;38809;53.300;6.614;2023-06-10T04:37:53;13.20;99.90
52943;DHT22;38809;53.300;6.614;2023-06-10T04:40:19;13.30;99.90
52943;DHT22;38809;53.300;6.614;2023-06-10T04:42:45;13.30;99.90
52943;DHT22;38809;53.300;6.614;2023-06-10T04:45:11;13.50;99.90
52943;DHT22;38809;53.300;6.614;2023-06-10T04:47:36;13.50;99.90
52943;DHT22;38809;53.300;6.614;2023-06-10T04:50:03;13.70;99.90
52943;DHT22;38809;53.300;6.614;2023-06-10T04:52:29;14.00;99.90
52943;DHT22;38809;53.300;6.614;2023-06-10T04:54:56;13.80;99.90
52943;DHT22;38809;53.300;6.614;2023-06-10T04:57:21;14.00;99.90
52943;DHT22;38809;53.300;6.614;2023-06-10T04:59:47;14.00;99.90
52943;DHT22;38809;53.300;6.614;2023-06-10T05:02:13;14.70;99.90
52943;DHT22;38809;53.300;6.614;2023-06-10T05:04:39;15.10;99.90
52943;DHT22;38809;53.300;6.614;2023-06-10T05:07:05;14.70;99.90
52943;DHT22;38809;53.300;6.614;2023-06-10T05:09:31;15.10;99.90
52943;DHT22;38809;53.300;6.614;2023-06-10T05:11:56;15.60;99.90
52943;DHT22;38809;53.300;6.614;2023-06-10T05:14:22;15.30;99.90
52943;DHT22;38809;53.300;6.614;2023-06-10T05:16:48;15.70;99.90
52943;DHT22;38809;53.300;6.614;2023-06-10T05:19:14;15.70;99.90
52943;DHT22;38809;53.300;6.614;2023-06-10T05:21:41;15.30;99.90
52943;DHT22;38809;53.300;6.614;2023-06-10T05:24:07;15.50;99.90
52943;DHT22;38809;53.300;6.614;2023-06-10T05:26:33;15.10;99.90
52943;DHT22;38809;53.300;6.614;2023-06-10T05:29:06;15.10;99.90
52943;DHT22;38809;53.300;6.614;2023-06-10T05:31:32;15.10;99.90
52943;DHT22;38809;53.300;6.614;2023-06-10T05:33:58;15.10;99.90
52943;DHT22;38809;53.300;6.614;2023-06-10T05:36:23;15.20;99.90
52943;DHT22;38809;53.300;6.614;2023-06-10T05:38:51;15.20;99.90
52943;DHT22;38809;53.300;6.614;2023-06-10T05:41:17;15.20;99.90
52943;DHT22;38809;53.300;6.614;2023-06-10T05:43:42;15.20;99.90
52943;DHT22;38809;53.300;6.614;2023-06-10T05:46:08;15.40;99.90
52943;DHT22;38809;53.300;6.614;2023-06-10T05:48:34;15.40;99.90
52943;DHT22;38809;53.300;6.614;2023-06-10T05:51:00;15.70;99.90
52943;DHT22;38809;53.300;6.614;2023-06-10T05:53:25;15.40;99.90
52943;DHT22;38809;53.300;6.614;2023-06-10T05:55:51;15.50;99.90
52943;DHT22;38809;53.300;6.614;2023-06-10T05:58:19;15.50;99.90
52943;DHT22;38809;53.300;6.614;2023-06-10T06:00:45;15.30;99.90
52943;DHT22;38809;53.300;6.614;2023-06-10T06:03:11;15.40;99.90
52943;DHT22;38809;53.300;6.614;2023-06-10T06:05:36;15.40;99.90
52943;DHT22;38809;53.300;6.614;2023-06-10T06:08:07;15.50;99.90
52943;DHT22;38809;53.300;6.614;2023-06-10T06:10:33;15.70;99.90
52943;DHT22;38809;53.300;6.614;2023-06-10T06:13:00;15.80;99.90
52943;DHT22;38809;53.300;6.614;2023-06-10T06:15:26;15.70;99.90
52943;DHT22;38809;53.300;6.614;2023-06-10T06:17:51;15.70;99.90
52943;DHT22;38809;53.300;6.614;2023-06-10T06:20:22;15.70;99.90
52943;DHT22;38809;53.300;6.614;2023-06-10T06:22:48;15.70;99.90
52943;DHT22;38809;53.300;6.614;2023-06-10T06:25:13;15.70;99.90
52943;DHT22;38809;53.300;6.614;2023-06-10T06:27:39;15.80;99.90
52943;DHT22;38809;53.300;6.614;2023-06-10T06:30:05;15.90;99.90
52943;DHT22;38809;53.300;6.614;2023-06-10T06:32:31;16.10;99.90
52943;DHT22;38809;53.300;6.614;2023-06-10T06:34:57;16.00;99.90
52943;DHT22;38809;53.300;6.614;2023-06-10T06:37:23;16.20;99.90
52943;DHT22;38809;53.300;6.614;2023-06-10T06:39:52;16.20;99.90
52943;DHT22;38809;53.300;6.614;2023-06-10T06:42:19;16.30;99.90
52943;DHT22;38809;53.300;6.614;2023-06-10T06:44:44;16.30;99.90
52943;DHT22;38809;53.300;6.614;2023-06-10T06:47:10;16.40;99.90
52943;DHT22;38809;53.300;6.614;2023-06-10T06:49:36;16.50;99.90
52943;DHT22;38809;53.300;6.614;2023-06-10T06:52:02;16.70;99.90
52943;DHT22;38809;53.300;6.614;2023-06-10T06:54:28;16.70;99.90
52943;DHT22;38809;53.300;6.614;2023-06-10T06:56:54;16.80;99.90
52943;DHT22;38809;53.300;6.614;2023-06-10T06:59:20;17.00;99.90
52943;DHT22;38809;53.300;6.614;2023-06-10T07:01:46;17.40;99.90
52943;DHT22;38809;53.300;6.614;2023-06-10T07:04:14;17.30;99.90
52943;DHT22;38809;53.300;6.614;2023-06-10T07:06:40;17.60;99.90
52943;DHT22;38809;53.300;6.614;2023-06-10T07:09:07;17.70;99.90
52943;DHT22;38809;53.300;6.614;2023-06-10T07:11:34;17.80;99.90
52943;DHT22;38809;53.300;6.614;2023-06-10T07:13:59;18.00;99.90
52943;DHT22;38809;53.300;6.614;2023-06-10T07:16:25;18.40;99.90
52943;DHT22;38809;53.300;6.614;2023-06-10T07:18:52;18.60;99.90
52943;DHT22;38809;53.300;6.614;2023-06-10T07:21:18;18.10;99.90
52943;DHT22;38809;53.300;6.614;2023-06-10T07:23:44;19.00;99.90
52943;DHT22;38809;53.300;6.614;2023-06-10T07:26:10;19.40;99.90
52943;DHT22;38809;53.300;6.614;2023-06-10T07:28:42;19.50;99.90
52943;DHT22;38809;53.300;6.614;2023-06-10T07:31:08;19.20;99.90
52943;DHT22;38809;53.300;6.614;2023-06-10T07:33:34;19.80;99.90
52943;DHT22;38809;53.300;6.614;2023-06-10T07:36:00;19.60;99.90
52943;DHT22;38809;53.300;6.614;2023-06-10T07:38:26;19.60;99.90
52943;DHT22;38809;53.300;6.614;2023-06-10T07:40:52;19.50;99.90
52943;DHT22;38809;53.300;6.614;2023-06-10T07:43:18;19.30;99.90
52943;DHT22;38809;53.300;6.614;2023-06-10T07:45:44;20.00;99.90
52943;DHT22;38809;53.300;6.614;2023-06-10T07:48:10;19.70;99.90
52943;DHT22;38809;53.300;6.614;2023-06-10T07:50:35;20.50;99.90
52943;DHT22;38809;53.300;6.614;2023-06-10T07:53:01;19.60;99.90
52943;DHT22;38809;53.300;6.614;2023-06-10T07:55:27;19.80;99.90
52943;DHT22;38809;53.300;6.614;2023-06-10T07:57:53;17.40;99.90
52943;DHT22;38809;53.300;6.614;2023-06-10T08:00:20;19.80;99.90
52943;DHT22;38809;53.300;6.614;2023-06-10T08:02:46;20.60;99.90
52943;DHT22;38809;53.300;6.614;2023-06-10T08:05:12;20.70;99.90
52943;DHT22;38809;53.300;6.614;2023-06-10T08:07:38;20.20;99.90
52943;DHT22;38809;53.300;6.614;2023-06-10T08:10:05;20.50;99.90
52943;DHT22;38809;53.300;6.614;2023-06-10T08:12:32;20.80;99.90
52943;DHT22;38809;53.300;6.614;2023-06-10T08:14:58;21.10;99.90
52943;DHT22;38809;53.300;6.614;2023-06-10T08:17:24;20.90;99.90
52943;DHT22;38809;53.300;6.614;2023-06-10T08:19:49;21.00;99.90
52943;DHT22;38809;53.300;6.614;2023-06-10T08:22:15;20.70;99.90
52943;DHT22;38809;53.300;6.614;2023-06-10T08:24:41;21.00;99.90
52943;DHT22;38809;53.300;6.614;2023-06-10T08:27:07;20.20;99.90
52943;DHT22;38809;53.300;6.614;2023-06-10T08:29:32;20.30;99.90
52943;DHT22;38809;53.300;6.614;2023-06-10T08:31:58;20.70;99.90
52943;DHT22;38809;53.300;6.614;2023-06-10T08:34:24;20.60;99.90
52943;DHT22;38809;53.300;6.614;2023-06-10T08:36:56;20.70;99.90
52943;DHT22;38809;53.300;6.614;2023-06-10T08:39:22;20.70;99.90
52943;DHT22;38809;53.300;6.614;2023-06-10T08:44:28;20.80;99.90
52943;DHT22;38809;53.300;6.614;2023-06-10T08:46:58;21.80;99.90
52943;DHT22;38809;53.300;6.614;2023-06-10T08:49:26;21.80;99.90
52943;DHT22;38809;53.300;6.614;2023-06-10T08:51:58;21.40;99.90
52943;DHT22;38809;53.300;6.614;2023-06-10T08:54:27;21.70;99.90
52943;DHT22;38809;53.300;6.614;2023-06-10T08:56:55;22.30;99.90
52943;DHT22;38809;53.300;6.614;2023-06-10T08:59:21;23.00;99.90
52943;DHT22;38809;53.300;6.614;2023-06-10T09:01:48;23.20;99.90
52943;DHT22;38809;53.300;6.614;2023-06-10T09:04:15;22.50;99.90
52943;DHT22;38809;53.300;6.614;2023-06-10T09:06:43;22.50;99.90
52943;DHT22;38809;53.300;6.614;2023-06-10T09:09:10;22.20;99.90
52943;DHT22;38809;53.300;6.614;2023-06-10T09:11:37;22.60;99.90
52943;DHT22;38809;53.300;6.614;2023-06-10T09:14:03;22.50;99.90
52943;DHT22;38809;53.300;6.614;2023-06-10T09:16:29;22.60;99.90
52943;DHT22;38809;53.300;6.614;2023-06-10T09:18:55;22.20;99.90
52943;DHT22;38809;53.300;6.614;2023-06-10T09:21:22;22.20;99.90
52943;DHT22;38809;53.300;6.614;2023-06-10T09:23:48;22.60;99.90
52943;DHT22;38809;53.300;6.614;2023-06-10T09:26:13;22.70;99.90
52943;DHT22;38809;53.300;6.614;2023-06-10T09:28:41;22.30;99.90
52943;DHT22;38809;53.300;6.614;2023-06-10T09:31:08;22.40;99.90
52943;DHT22;38809;53.300;6.614;2023-06-10T09:33:38;22.30;99.90
52943;DHT22;38809;53.300;6.614;2023-06-10T09:36:05;22.90;99.90
52943;DHT22;38809;53.300;6.614;2023-06-10T09:38:32;22.50;99.90
52943;DHT22;38809;53.300;6.614;2023-06-10T09:40:58;22.40;99.90
52943;DHT22;38809;53.300;6.614;2023-06-10T09:43:39;22.40;99.90
52943;DHT22;38809;53.300;6.614;2023-06-10T09:46:05;22.80;99.90
52943;DHT22;38809;53.300;6.614;2023-06-10T09:48:35;22.80;99.90
52943;DHT22;38809;53.300;6.614;2023-06-10T09:51:01;22.50;99.90
52943;DHT22;38809;53.300;6.614;2023-06-10T09:53:27;23.10;99.90
52943;DHT22;38809;53.300;6.614;2023-06-10T09:55:53;23.00;99.90
52943;DHT22;38809;53.300;6.614;2023-06-10T09:58:23;22.70;99.90
52943;DHT22;38809;53.300;6.614;2023-06-10T10:00:58;23.00;99.90
52943;DHT22;38809;53.300;6.614;2023-06-10T10:03:24;23.10;99.90
52943;DHT22;38809;53.300;6.614;2023-06-10T10:05:49;23.30;99.90
52943;DHT22;38809;53.300;6.614;2023-06-10T10:08:22;23.20;99.90
52943;DHT22;38809;53.300;6.614;2023-06-10T10:10:48;23.50;99.90
52943;DHT22;38809;53.300;6.614;2023-06-10T10:13:14;23.00;99.90
52943;DHT22;38809;53.300;6.614;2023-06-10T10:15:41;22.80;99.90
52943;DHT22;38809;53.300;6.614;2023-06-10T10:18:09;23.50;99.90
52943;DHT22;38809;53.300;6.614;2023-06-10T10:20:46;23.40;99.90
52943;DHT22;38809;53.300;6.614;2023-06-10T10:23:14;22.90;99.90
52943;DHT22;38809;53.300;6.614;2023-06-10T10:25:44;23.30;99.90
52943;DHT22;38809;53.300;6.614;2023-06-10T10:28:13;23.50;99.90
52943;DHT22;38809;53.300;6.614;2023-06-10T10:30:43;23.70;99.90
52943;DHT22;38809;53.300;6.614;2023-06-10T10:33:16;23.50;99.90
52943;DHT22;38809;53.300;6.614;2023-06-10T10:35:43;24.30;99.90
52943;DHT22;38809;53.300;6.614;2023-06-10T10:38:09;24.00;99.90
52943;DHT22;38809;53.300;6.614;2023-06-10T10:40:35;23.90;99.90
52943;DHT22;38809;53.300;6.614;2023-06-10T10:43:02;23.80;99.90
52943;DHT22;38809;53.300;6.614;2023-06-10T10:45:29;24.00;99.90
52943;DHT22;38809;53.300;6.614;2023-06-10T10:47:55;24.10;99.90
52943;DHT22;38809;53.300;6.614;2023-06-10T10:50:22;24.00;99.90
52943;DHT22;38809;53.300;6.614;2023-06-10T10:52:59;23.70;99.90
52943;DHT22;38809;53.300;6.614;2023-06-10T10:55:26;24.10;99.90
52943;DHT22;38809;53.300;6.614;2023-06-10T10:57:59;23.80;99.90
52943;DHT22;38809;53.300;6.614;2023-06-10T11:00:34;24.00;99.90
52943;DHT22;38809;53.300;6.614;2023-06-10T11:03:06;23.70;99.90
52943;DHT22;38809;53.300;6.614;2023-06-10T11:05:43;23.60;99.90
52943;DHT22;38809;53.300;6.614;2023-06-10T11:08:10;24.30;99.90
52943;DHT22;38809;53.300;6.614;2023-06-10T11:10:38;24.30;99.90
52943;DHT22;38809;53.300;6.614;2023-06-10T11:13:09;24.10;99.90
52943;DHT22;38809;53.300;6.614;2023-06-10T11:15:46;23.90;99.90
52943;DHT22;38809;53.300;6.614;2023-06-10T11:18:20;24.10;99.90
52943;DHT22;38809;53.300;6.614;2023-06-10T11:26:19;24.10;99.90
52943;DHT22;38809;53.300;6.614;2023-06-10T11:33:57;24.00;99.90
52943;DHT22;38809;53.300;6.614;2023-06-10T11:36:23;24.00;99.90
52943;DHT22;38809;53.300;6.614;2023-06-10T11:38:50;24.20;99.90
52943;DHT22;38809;53.300;6.614;2023-06-10T11:41:18;24.10;99.90
52943;DHT22;38809;53.300;6.614;2023-06-10T11:43:45;24.10;99.90
52943;DHT22;38809;53.300;6.614;2023-06-10T11:46:12;24.00;99.90
52943;DHT22;38809;53.300;6.614;2023-06-10T11:48:38;24.40;99.90
52943;DHT22;38809;53.300;6.614;2023-06-10T11:51:09;23.90;99.90
52943;DHT22;38809;53.300;6.614;2023-06-10T11:53:35;24.10;99.90
52943;DHT22;38809;53.300;6.614;2023-06-10T11:56:01;24.50;99.90
52943;DHT22;38809;53.300;6.614;2023-06-10T11:58:26;24.10;99.90
52943;DHT22;38809;53.300;6.614;2023-06-10T12:00:53;24.30;99.90
52943;DHT22;38809;53.300;6.614;2023-06-10T12:03:20;24.40;99.90
52943;DHT22;38809;53.300;6.614;2023-06-10T12:06:06;24.10;99.90
52943;DHT22;38809;53.300;6.614;2023-06-10T12:08:32;24.20;99.90
52943;DHT22;38809;53.300;6.614;2023-06-10T12:10:58;24.30;99.90
52943;DHT22;38809;53.300;6.614;2023-06-10T12:13:26;23.80;99.90
52943;DHT22;38809;53.300;6.614;2023-06-10T12:15:51;24.40;99.90
52943;DHT22;38809;53.300;6.614;2023-06-10T12:18:18;24.00;99.90
52943;DHT22;38809;53.300;6.614;2023-06-10T12:20:45;24.10;99.90
52943;DHT22;38809;53.300;6.614;2023-06-10T12:23:11;24.00;99.90
52943;DHT22;38809;53.300;6.614;2023-06-10T12:25:37;24.40;99.90
52943;DHT22;38809;53.300;6.614;2023-06-10T12:28:04;24.10;99.90
52943;DHT22;38809;53.300;6.614;2023-06-10T12:30:30;24.40;99.90
52943;DHT22;38809;53.300;6.614;2023-06-10T12:32:57;24.30;99.90
52943;DHT22;38809;53.300;6.614;2023-06-10T12:35:26;24.70;99.90
52943;DHT22;38809;53.300;6.614;2023-06-10T12:38:05;24.20;99.90
52943;DHT22;38809;53.300;6.614;2023-06-10T12:40:39;24.10;99.90
52943;DHT22;38809;53.300;6.614;2023-06-10T12:43:07;24.40;99.90
52943;DHT22;38809;53.300;6.614;2023-06-10T12:45:34;24.50;99.90
52943;DHT22;38809;53.300;6.614;2023-06-10T12:48:10;24.30;99.90
52943;DHT22;38809;53.300;6.614;2023-06-10T12:50:41;24.60;99.90
52943;DHT22;38809;53.300;6.614;2023-06-10T12:53:08;24.20;99.90
52943;DHT22;38809;53.300;6.614;2023-06-10T12:55:34;23.90;99.90
52943;DHT22;38809;53.300;6.614;2023-06-10T12:58:00;24.30;99.90
52943;DHT22;38809;53.300;6.614;2023-06-10T13:00:27;24.10;99.90
52943;DHT22;38809;53.300;6.614;2023-06-10T13:02:59;23.70;99.90
52943;DHT22;38809;53.300;6.614;2023-06-10T13:05:26;23.70;99.90
52943;DHT22;38809;53.300;6.614;2023-06-10T13:07:52;24.10;99.90
52943;DHT22;38809;53.300;6.614;2023-06-10T13:10:18;24.00;99.90
52943;DHT22;38809;53.300;6.614;2023-06-10T13:12:44;24.40;99.90
52943;DHT22;38809;53.300;6.614;2023-06-10T13:15:10;24.50;99.90
52943;DHT22;38809;53.300;6.614;2023-06-10T13:17:36;24.30;99.90
52943;DHT22;38809;53.300;6.614;2023-06-10T13:20:06;24.00;99.90
52943;DHT22;38809;53.300;6.614;2023-06-10T13:22:33;24.30;99.90
52943;DHT22;38809;53.300;6.614;2023-06-10T13:25:04;24.00;99.90
52943;DHT22;38809;53.300;6.614;2023-06-10T13:27:30;24.10;99.90
52943;DHT22;38809;53.300;6.614;2023-06-10T13:29:56;24.30;99.90
52943;DHT22;38809;53.300;6.614;2023-06-10T13:32:22;24.40;99.90
52943;DHT22;38809;53.300;6.614;2023-06-10T13:34:47;24.10;99.90
52943;DHT22;38809;53.300;6.614;2023-06-10T13:37:15;24.00;99.90
52943;DHT22;38809;53.300;6.614;2023-06-10T13:39:43;24.00;99.90
52943;DHT22;38809;53.300;6.614;2023-06-10T13:42:08;24.40;99.90
52943;DHT22;38809;53.300;6.614;2023-06-10T13:44:34;24.40;99.90
52943;DHT22;38809;53.300;6.614;2023-06-10T13:47:02;24.20;99.90
52943;DHT22;38809;53.300;6.614;2023-06-10T13:49:28;24.40;99.90
52943;DHT22;38809;53.300;6.614;2023-06-10T13:51:54;24.30;99.90
52943;DHT22;38809;53.300;6.614;2023-06-10T13:54:20;24.60;99.90
52943;DHT22;38809;53.300;6.614;2023-06-10T13:56:46;24.60;99.90
52943;DHT22;38809;53.300;6.614;2023-06-10T13:59:12;24.50;99.90
52943;DHT22;38809;53.300;6.614;2023-06-10T14:01:38;24.40;99.90
52943;DHT22;38809;53.300;6.614;2023-06-10T14:04:04;24.40;99.90
52943;DHT22;38809;53.300;6.614;2023-06-10T14:06:29;24.50;99.90
52943;DHT22;38809;53.300;6.614;2023-06-10T14:08:56;24.50;99.90
52943;DHT22;38809;53.300;6.614;2023-06-10T14:11:21;24.40;99.90
52943;DHT22;38809;53.300;6.614;2023-06-10T14:13:47;24.60;99.90
52943;DHT22;38809;53.300;6.614;2023-06-10T14:16:13;24.60;99.90
52943;DHT22;38809;53.300;6.614;2023-06-10T14:18:38;24.60;99.90
52943;DHT22;38809;53.300;6.614;2023-06-10T14:21:04;24.70;99.90
52943;DHT22;38809;53.300;6.614;2023-06-10T14:23:30;24.60;99.90
52943;DHT22;38809;53.300;6.614;2023-06-10T14:25:55;24.40;99.90
52943;DHT22;38809;53.300;6.614;2023-06-10T14:28:22;24.70;99.90
52943;DHT22;38809;53.300;6.614;2023-06-10T14:30:49;24.50;99.90
52943;DHT22;38809;53.300;6.614;2023-06-10T14:33:15;24.60;99.90
52943;DHT22;38809;53.300;6.614;2023-06-10T14:35:41;24.50;99.90
52943;DHT22;38809;53.300;6.614;2023-06-10T14:38:08;24.60;99.90
52943;DHT22;38809;53.300;6.614;2023-06-10T14:40:34;24.70;99.90
52943;DHT22;38809;53.300;6.614;2023-06-10T14:42:59;24.80;99.90
52943;DHT22;38809;53.300;6.614;2023-06-10T14:45:26;24.80;99.90
52943;DHT22;38809;53.300;6.614;2023-06-10T14:47:52;24.50;99.90
52943;DHT22;38809;53.300;6.614;2023-06-10T14:50:18;24.30;99.90
52943;DHT22;38809;53.300;6.614;2023-06-10T14:52:43;24.60;99.90
52943;DHT22;38809;53.300;6.614;2023-06-10T14:55:09;24.50;99.90
52943;DHT22;38809;53.300;6.614;2023-06-10T14:57:35;24.60;99.90
52943;DHT22;38809;53.300;6.614;2023-06-10T15:00:00;24.70;99.90
52943;DHT22;38809;53.300;6.614;2023-06-10T15:02:26;24.60;99.90
52943;DHT22;38809;53.300;6.614;2023-06-10T15:04:52;24.60;99.90
52943;DHT22;38809;53.300;6.614;2023-06-10T15:07:17;24.80;99.90
52943;DHT22;38809;53.300;6.614;2023-06-10T15:09:43;24.60;99.90
52943;DHT22;38809;53.300;6.614;2023-06-10T15:12:09;24.40;99.90
52943;DHT22;38809;53.300;6.614;2023-06-10T15:14:36;24.50;99.90
52943;DHT22;38809;53.300;6.614;2023-06-10T15:17:01;24.60;99.90
52943;DHT22;38809;53.300;6.614;2023-06-10T15:19:27;24.60;99.90
52943;DHT22;38809;53.300;6.614;2023-06-10T15:21:53;24.60;99.90
52943;DHT22;38809;53.300;6.614;2023-06-10T15:24:19;24.60;99.90
52943;DHT22;38809;53.300;6.614;2023-06-10T15:26:45;24.60;99.90
52943;DHT22;38809;53.300;6.614;2023-06-10T15:29:11;24.70;99.90
52943;DHT22;38809;53.300;6.614;2023-06-10T15:31:36;24.70;99.90
52943;DHT22;38809;53.300;6.614;2023-06-10T15:34:02;24.60;99.90
52943;DHT22;38809;53.300;6.614;2023-06-10T15:36:29;24.70;99.90
52943;DHT22;38809;53.300;6.614;2023-06-10T15:39:01;24.50;99.90
52943;DHT22;38809;53.300;6.614;2023-06-10T15:41:28;24.50;99.90
52943;DHT22;38809;53.300;6.614;2023-06-10T15:43:54;24.30;99.90
52943;DHT22;38809;53.300;6.614;2023-06-10T15:46:20;24.30;99.90